sensor_id;sensor_type;location;lat;lon;timestamp;pressure;altitude;pressure_sealevel;temperature;humidity
44297;BME280;51842;47.450;8.654;2022-12-07T00:01:38;95534.81;;;1.14;99.89
44297;BME280;51842;47.450;8.654;2022-12-07T00:04:07;95532.00;;;1.16;99.75
44297;BME280;51842;47.450;8.654;2022-12-07T00:09:04;95527.38;;;1.11;99.72
44297;BME280;51842;47.450;8.654;2022-12-07T00:11:31;95530.38;;;1.15;99.87
44297;BME280;51842;47.450;8.654;2022-12-07T00:14:04;95528.56;;;1.15;99.46
44297;BME280;51842;47.450;8.654;2022-12-07T00:16:34;95529.38;;;1.16;99.44
44297;BME280;51842;47.450;8.654;2022-12-07T00:19:01;95533.00;;;1.15;99.30
44297;BME280;51842;47.450;8.654;2022-12-07T00:21:35;95532.00;;;1.16;99.27
44297;BME280;51842;47.450;8.654;2022-12-07T00:24:03;95530.38;;;1.15;99.22
44297;BME280;51842;47.450;8.654;2022-12-07T00:26:38;95530.78;;;1.12;99.12
44297;BME280;51842;47.450;8.654;2022-12-07T00:29:13;95532.41;;;1.06;99.21
44297;BME280;51842;47.450;8.654;2022-12-07T00:31:42;95530.59;;;1.00;98.89
44297;BME280;51842;47.450;8.654;2022-12-07T00:34:14;95521.75;;;1.01;99.04
44297;BME280;51842;47.450;8.654;2022-12-07T00:36:40;95523.56;;;1.01;99.07
44297;BME280;51842;47.450;8.654;2022-12-07T00:39:06;95527.00;;;1.01;98.81
44297;BME280;51842;47.450;8.654;2022-12-07T00:41:35;95522.31;;;1.03;99.17
44297;BME280;51842;47.450;8.654;2022-12-07T00:44:03;95525.19;;;1.02;99.45
44297;BME280;51842;47.450;8.654;2022-12-07T00:46:30;95522.31;;;1.03;99.28
44297;BME280;51842;47.450;8.654;2022-12-07T00:49:01;95522.94;;;1.05;98.66
44297;BME280;51842;47.450;8.654;2022-12-07T00:51:27;95521.13;;;1.06;99.14
44297;BME280;51842;47.450;8.654;2022-12-07T00:53:54;95525.16;;;1.08;98.65
44297;BME280;51842;47.450;8.654;2022-12-07T00:56:26;95520.69;;;1.09;98.52
44297;BME280;51842;47.450;8.654;2022-12-07T00:59:01;95518.88;;;1.09;98.45
44297;BME280;51842;47.450;8.654;2022-12-07T01:01:34;95518.31;;;1.07;97.71
44297;BME280;51842;47.450;8.654;2022-12-07T01:04:00;95518.31;;;1.07;97.93
44297;BME280;51842;47.450;8.654;2022-12-07T01:06:27;95518.09;;;1.02;98.40
44297;BME280;51842;47.450;8.654;2022-12-07T01:08:56;95512.66;;;1.04;98.76
44297;BME280;51842;47.450;8.654;2022-12-07T01:11:31;95521.72;;;1.08;98.68
44297;BME280;51842;47.450;8.654;2022-12-07T01:13:59;95525.94;;;1.09;98.35
44297;BME280;51842;47.450;8.654;2022-12-07T01:16:28;95525.75;;;1.10;98.38
44297;BME280;51842;47.450;8.654;2022-12-07T01:18:59;95523.31;;;1.09;98.34
44297;BME280;51842;47.450;8.654;2022-12-07T01:21:29;95519.72;;;1.10;98.21
44297;BME280;51842;47.450;8.654;2022-12-07T01:23:58;95523.94;;;1.11;98.04
44297;BME280;51842;47.450;8.654;2022-12-07T01:26:25;95521.50;;;1.09;97.97
44297;BME280;51842;47.450;8.654;2022-12-07T01:28:52;95524.34;;;1.08;98.07
44297;BME280;51842;47.450;8.654;2022-12-07T01:31:27;95515.06;;;1.05;98.01
44297;BME280;51842;47.450;8.654;2022-12-07T01:33:57;95521.91;;;1.06;97.78
44297;BME280;51842;47.450;8.654;2022-12-07T01:36:29;95522.13;;;1.05;97.93
44297;BME280;51842;47.450;8.654;2022-12-07T01:38:59;95519.50;;;1.05;97.89
44297;BME280;51842;47.450;8.654;2022-12-07T01:41:30;95514.66;;;1.08;97.75
44297;BME280;51842;47.450;8.654;2022-12-07T01:44:30;95517.09;;;1.10;97.62
44297;BME280;51842;47.450;8.654;2022-12-07T01:47:03;95521.31;;;1.11;97.73
44297;BME280;51842;47.450;8.654;2022-12-07T01:52:27;95524.56;;;1.13;97.45
44297;BME280;51842;47.450;8.654;2022-12-07T01:55:08;95517.66;;;1.12;97.41
44297;BME280;51842;47.450;8.654;2022-12-07T01:57:40;95527.16;;;1.13;97.84
44297;BME280;51842;47.450;8.654;2022-12-07T02:00:08;95522.13;;;1.11;97.36
44297;BME280;51842;47.450;8.654;2022-12-07T02:02:41;95518.09;;;1.09;97.40
44297;BME280;51842;47.450;8.654;2022-12-07T02:05:09;95521.09;;;1.12;97.15
44297;BME280;51842;47.450;8.654;2022-12-07T02:07:38;95519.50;;;1.11;97.19
44297;BME280;51842;47.450;8.654;2022-12-07T02:13:24;95511.00;;;1.09;97.46
44297;BME280;51842;47.450;8.654;2022-12-07T02:31:20;95508.81;;;1.06;97.52
44297;BME280;51842;47.450;8.654;2022-12-07T02:33:57;95505.78;;;1.03;97.08
44297;BME280;51842;47.450;8.654;2022-12-07T02:36:43;95502.34;;;1.09;97.07
44297;BME280;51842;47.450;8.654;2022-12-07T02:39:26;95502.94;;;1.11;96.81
44297;BME280;51842;47.450;8.654;2022-12-07T02:42:15;95502.72;;;1.12;97.01
44297;BME280;51842;47.450;8.654;2022-12-07T02:44:51;95507.16;;;1.12;96.53
44297;BME280;51842;47.450;8.654;2022-12-07T02:47:20;95506.97;;;1.13;96.39
44297;BME280;51842;47.450;8.654;2022-12-07T02:49:50;95504.56;;;1.12;96.33
44297;BME280;51842;47.450;8.654;2022-12-07T02:52:19;95513.84;;;1.14;95.96
44297;BME280;51842;47.450;8.654;2022-12-07T02:54:45;95506.75;;;1.15;96.31
44297;BME280;51842;47.450;8.654;2022-12-07T03:00:37;95497.06;;;1.15;96.29
44297;BME280;51842;47.450;8.654;2022-12-07T03:03:15;95496.25;;;1.15;96.46
44297;BME280;51842;47.450;8.654;2022-12-07T03:06:10;95492.84;;;1.14;96.47
44297;BME280;51842;47.450;8.654;2022-12-07T03:09:28;95494.44;;;1.15;97.08
44297;BME280;51842;47.450;8.654;2022-12-07T03:14:53;95484.56;;;1.18;97.30
44297;BME280;51842;47.450;8.654;2022-12-07T03:17:31;95487.19;;;1.18;97.03
44297;BME280;51842;47.450;8.654;2022-12-07T03:20:04;95484.34;;;1.19;96.94
44297;BME280;51842;47.450;8.654;2022-12-07T03:22:37;95482.53;;;1.20;96.97
44297;BME280;51842;47.450;8.654;2022-12-07T03:25:11;95487.56;;;1.21;96.93
44297;BME280;51842;47.450;8.654;2022-12-07T03:27:58;95485.16;;;1.20;96.83
44297;BME280;51842;47.450;8.654;2022-12-07T03:30:56;95483.72;;;1.24;97.07
44297;BME280;51842;47.450;8.654;2022-12-07T03:33:39;95484.34;;;1.26;96.80
44297;BME280;51842;47.450;8.654;2022-12-07T03:39:29;95491.19;;;1.27;96.52
44297;BME280;51842;47.450;8.654;2022-12-07T03:42:00;95492.78;;;1.28;96.68
44297;BME280;51842;47.450;8.654;2022-12-07T03:44:29;95487.94;;;1.25;96.69
44297;BME280;51842;47.450;8.654;2022-12-07T03:52:56;95488.16;;;1.23;97.00
44297;BME280;51842;47.450;8.654;2022-12-07T03:55:32;95488.97;;;1.24;97.21
44297;BME280;51842;47.450;8.654;2022-12-07T03:58:14;95494.84;;;1.26;97.26
44297;BME280;51842;47.450;8.654;2022-12-07T04:00:43;95492.78;;;1.28;97.09
44297;BME280;51842;47.450;8.654;2022-12-07T04:03:10;95484.34;;;1.26;97.03
44297;BME280;51842;47.450;8.654;2022-12-07T04:05:37;95486.97;;;1.26;96.89
44297;BME280;51842;47.450;8.654;2022-12-07T04:08:07;95490.16;;;1.28;97.17
44297;BME280;51842;47.450;8.654;2022-12-07T04:10:33;95493.41;;;1.30;97.09
44297;BME280;51842;47.450;8.654;2022-12-07T04:12:59;95488.34;;;1.28;97.00
44297;BME280;51842;47.450;8.654;2022-12-07T04:15:25;95481.09;;;1.24;97.65
44297;BME280;51842;47.450;8.654;2022-12-07T04:17:51;95486.13;;;1.25;97.76
44297;BME280;51842;47.450;8.654;2022-12-07T04:20:28;95480.88;;;1.25;97.84
44297;BME280;51842;47.450;8.654;2022-12-07T04:22:53;95480.06;;;1.25;97.47
44297;BME280;51842;47.450;8.654;2022-12-07T04:25:25;95477.25;;;1.26;97.46
44297;BME280;51842;47.450;8.654;2022-12-07T04:27:51;95472.81;;;1.27;97.77
44297;BME280;51842;47.450;8.654;2022-12-07T04:30:23;95482.50;;;1.26;97.66
44297;BME280;51842;47.450;8.654;2022-12-07T04:32:54;95482.28;;;1.28;97.61
44297;BME280;51842;47.450;8.654;2022-12-07T04:35:20;95479.25;;;1.31;97.52
44297;BME280;51842;47.450;8.654;2022-12-07T04:37:49;95480.47;;;1.28;97.59
44297;BME280;51842;47.450;8.654;2022-12-07T04:40:21;95476.03;;;1.29;97.81
44297;BME280;51842;47.450;8.654;2022-12-07T04:42:49;95479.66;;;1.28;97.99
44297;BME280;51842;47.450;8.654;2022-12-07T04:45:15;95484.09;;;1.27;98.22
44297;BME280;51842;47.450;8.654;2022-12-07T04:47:41;95474.63;;;1.26;98.12
44297;BME280;51842;47.450;8.654;2022-12-07T04:50:12;95479.09;;;1.26;98.57
44297;BME280;51842;47.450;8.654;2022-12-07T04:52:37;95485.31;;;1.25;98.16
44297;BME280;51842;47.450;8.654;2022-12-07T04:55:03;95484.53;;;1.24;98.18
44297;BME280;51842;47.450;8.654;2022-12-07T04:57:29;95483.50;;;1.25;98.17
44297;BME280;51842;47.450;8.654;2022-12-07T04:59:55;95480.88;;;1.25;98.47
44297;BME280;51842;47.450;8.654;2022-12-07T05:02:21;95489.78;;;1.24;98.50
44297;BME280;51842;47.450;8.654;2022-12-07T05:04:46;95485.56;;;1.23;98.71
44297;BME280;51842;47.450;8.654;2022-12-07T05:07:15;95487.75;;;1.26;98.54
44297;BME280;51842;47.450;8.654;2022-12-07T05:09:41;95495.63;;;1.26;98.63
44297;BME280;51842;47.450;8.654;2022-12-07T05:12:07;95492.22;;;1.26;98.95
44297;BME280;51842;47.450;8.654;2022-12-07T05:14:32;95490.97;;;1.28;98.98
44297;BME280;51842;47.450;8.654;2022-12-07T05:16:58;95492.78;;;1.28;98.86
44297;BME280;51842;47.450;8.654;2022-12-07T05:19:24;95483.31;;;1.27;98.94
44297;BME280;51842;47.450;8.654;2022-12-07T05:21:51;95483.31;;;1.27;98.94
44297;BME280;51842;47.450;8.654;2022-12-07T05:24:29;95481.91;;;1.24;99.02
44297;BME280;51842;47.450;8.654;2022-12-07T05:26:58;95485.13;;;1.26;98.70
44297;BME280;51842;47.450;8.654;2022-12-07T05:29:24;95479.88;;;1.26;98.93
44297;BME280;51842;47.450;8.654;2022-12-07T05:31:49;95480.06;;;1.25;99.01
44297;BME280;51842;47.450;8.654;2022-12-07T05:34:16;95487.16;;;1.24;99.17
44297;BME280;51842;47.450;8.654;2022-12-07T05:36:44;95491.78;;;1.22;98.94
44297;BME280;51842;47.450;8.654;2022-12-07T05:39:10;95481.09;;;1.24;99.44
44297;BME280;51842;47.450;8.654;2022-12-07T05:41:36;95486.34;;;1.24;99.21
44297;BME280;51842;47.450;8.654;2022-12-07T05:44:22;95484.94;;;1.21;99.53
44297;BME280;51842;47.450;8.654;2022-12-07T05:46:54;95485.75;;;1.22;99.68
44297;BME280;51842;47.450;8.654;2022-12-07T05:49:19;95480.50;;;1.22;99.57
44297;BME280;51842;47.450;8.654;2022-12-07T05:52:00;95479.50;;;1.23;99.67
44297;BME280;51842;47.450;8.654;2022-12-07T05:54:33;95485.31;;;1.25;99.52
44297;BME280;51842;47.450;8.654;2022-12-07T05:56:58;95493.41;;;1.23;99.90
44297;BME280;51842;47.450;8.654;2022-12-07T05:59:24;95495.25;;;1.23;100.00
44297;BME280;51842;47.450;8.654;2022-12-07T06:02:03;95488.97;;;1.24;100.00
44297;BME280;51842;47.450;8.654;2022-12-07T06:04:35;95492.63;;;1.23;100.00
44297;BME280;51842;47.450;8.654;2022-12-07T06:07:05;95493.63;;;1.22;100.00
44297;BME280;51842;47.450;8.654;2022-12-07T06:09:31;95487.16;;;1.24;100.00
44297;BME280;51842;47.450;8.654;2022-12-07T06:11:58;95493.41;;;1.23;100.00
44297;BME280;51842;47.450;8.654;2022-12-07T06:14:44;95493.19;;;1.25;100.00
44297;BME280;51842;47.450;8.654;2022-12-07T06:17:11;95493.19;;;1.25;100.00
44297;BME280;51842;47.450;8.654;2022-12-07T06:19:40;95493.19;;;1.25;100.00
44297;BME280;51842;47.450;8.654;2022-12-07T06:22:07;95505.31;;;1.26;100.00
44297;BME280;51842;47.450;8.654;2022-12-07T06:24:35;95499.25;;;1.25;100.00
44297;BME280;51842;47.450;8.654;2022-12-07T06:27:00;95493.00;;;1.26;100.00
44297;BME280;51842;47.450;8.654;2022-12-07T06:29:26;95496.44;;;1.27;100.00
44297;BME280;51842;47.450;8.654;2022-12-07T06:31:52;95501.69;;;1.27;100.00
44297;BME280;51842;47.450;8.654;2022-12-07T06:34:21;95498.03;;;1.28;100.00
44297;BME280;51842;47.450;8.654;2022-12-07T06:36:49;95497.22;;;1.27;100.00
44297;BME280;51842;47.450;8.654;2022-12-07T06:39:24;95503.09;;;1.29;100.00
44297;BME280;51842;47.450;8.654;2022-12-07T06:41:53;95513.19;;;1.26;100.00
44297;BME280;51842;47.450;8.654;2022-12-07T06:44:31;95505.94;;;1.21;100.00
44297;BME280;51842;47.450;8.654;2022-12-07T06:47:01;95500.50;;;1.23;100.00
44297;BME280;51842;47.450;8.654;2022-12-07T06:49:33;95497.88;;;1.23;100.00
44297;BME280;51842;47.450;8.654;2022-12-07T06:51:59;95500.31;;;1.18;100.00
44297;BME280;51842;47.450;8.654;2022-12-07T06:54:28;95504.13;;;1.15;100.00
44297;BME280;51842;47.450;8.654;2022-12-07T06:56:56;95503.56;;;1.13;100.00
44297;BME280;51842;47.450;8.654;2022-12-07T06:59:21;95504.94;;;1.15;100.00
44297;BME280;51842;47.450;8.654;2022-12-07T07:01:47;95508.41;;;1.16;100.00
44297;BME280;51842;47.450;8.654;2022-12-07T07:04:13;95498.69;;;1.17;100.00
44297;BME280;51842;47.450;8.654;2022-12-07T07:06:41;95500.31;;;1.18;100.00
44297;BME280;51842;47.450;8.654;2022-12-07T07:09:07;95499.50;;;1.17;100.00
44297;BME280;51842;47.450;8.654;2022-12-07T07:11:32;95503.53;;;1.20;100.00
44297;BME280;51842;47.450;8.654;2022-12-07T07:13:58;95503.53;;;1.20;100.00
44297;BME280;51842;47.450;8.654;2022-12-07T07:16:30;95498.09;;;1.14;100.00
44297;BME280;51842;47.450;8.654;2022-12-07T07:18:57;95508.59;;;1.14;100.00
44297;BME280;51842;47.450;8.654;2022-12-07T07:21:28;95507.78;;;1.14;100.00
44297;BME280;51842;47.450;8.654;2022-12-07T07:23:54;95500.09;;;1.12;100.00
44297;BME280;51842;47.450;8.654;2022-12-07T07:26:19;95498.88;;;1.15;100.00
44297;BME280;51842;47.450;8.654;2022-12-07T07:28:48;95508.59;;;1.14;100.00
44297;BME280;51842;47.450;8.654;2022-12-07T07:31:14;95504.94;;;1.15;100.00
44297;BME280;51842;47.450;8.654;2022-12-07T07:33:40;95509.00;;;1.11;100.00
44297;BME280;51842;47.450;8.654;2022-12-07T07:36:06;95507.97;;;1.12;100.00
44297;BME280;51842;47.450;8.654;2022-12-07T07:38:32;95512.66;;;1.10;100.00
44297;BME280;51842;47.450;8.654;2022-12-07T07:41:03;95519.50;;;1.11;100.00
44297;BME280;51842;47.450;8.654;2022-12-07T07:43:32;95517.66;;;1.12;100.00
44297;BME280;51842;47.450;8.654;2022-12-07T07:45:58;95512.41;;;1.12;100.00
44297;BME280;51842;47.450;8.654;2022-12-07T07:48:24;95515.28;;;1.10;100.00
44297;BME280;51842;47.450;8.654;2022-12-07T07:50:51;95521.09;;;1.12;100.00
44297;BME280;51842;47.450;8.654;2022-12-07T07:53:17;95514.25;;;1.11;100.00
44297;BME280;51842;47.450;8.654;2022-12-07T07:55:53;95524.31;;;1.14;100.00
44297;BME280;51842;47.450;8.654;2022-12-07T07:58:19;95516.84;;;1.18;100.00
44297;BME280;51842;47.450;8.654;2022-12-07T08:00:45;95526.31;;;1.19;100.00
44297;BME280;51842;47.450;8.654;2022-12-07T08:03:11;95525.91;;;1.22;100.00
44297;BME280;51842;47.450;8.654;2022-12-07T08:05:38;95526.50;;;1.24;100.00
44297;BME280;51842;47.450;8.654;2022-12-07T08:08:04;95521.47;;;1.23;100.00
44297;BME280;51842;47.450;8.654;2022-12-07T08:10:33;95531.75;;;1.24;100.00
44297;BME280;51842;47.450;8.654;2022-12-07T08:13:00;95527.53;;;1.23;100.00
44297;BME280;51842;47.450;8.654;2022-12-07T08:15:53;95525.31;;;1.20;100.00
44297;BME280;51842;47.450;8.654;2022-12-07T08:18:18;95532.56;;;1.25;100.00
44297;BME280;51842;47.450;8.654;2022-12-07T08:20:44;95531.16;;;1.29;100.00
44297;BME280;51842;47.450;8.654;2022-12-07T08:23:10;95531.97;;;1.29;100.00
44297;BME280;51842;47.450;8.654;2022-12-07T08:25:37;95539.41;;;1.32;100.00
44297;BME280;51842;47.450;8.654;2022-12-07T08:28:03;95536.97;;;1.31;100.00
44297;BME280;51842;47.450;8.654;2022-12-07T08:30:30;95530.53;;;1.33;100.00
44297;BME280;51842;47.450;8.654;2022-12-07T08:32:58;95531.31;;;1.34;100.00
44297;BME280;51842;47.450;8.654;2022-12-07T08:35:24;95541.44;;;1.30;100.00
44297;BME280;51842;47.450;8.654;2022-12-07T08:37:50;95543.88;;;1.25;100.00
44297;BME280;51842;47.450;8.654;2022-12-07T08:40:16;95539.03;;;1.29;100.00
44297;BME280;51842;47.450;8.654;2022-12-07T08:42:51;95540.41;;;1.31;100.00
44297;BME280;51842;47.450;8.654;2022-12-07T08:45:21;95539.19;;;1.34;100.00
44297;BME280;51842;47.450;8.654;2022-12-07T08:48:01;95537.38;;;1.34;100.00
44297;BME280;51842;47.450;8.654;2022-12-07T08:50:28;95539.00;;;1.35;100.00
44297;BME280;51842;47.450;8.654;2022-12-07T08:52:57;95542.00;;;1.39;100.00
44297;BME280;51842;47.450;8.654;2022-12-07T08:55:34;95541.22;;;1.38;100.00
44297;BME280;51842;47.450;8.654;2022-12-07T08:58:01;95538.97;;;1.42;100.00
44297;BME280;51842;47.450;8.654;2022-12-07T09:00:27;95537.94;;;1.43;100.00
44297;BME280;51842;47.450;8.654;2022-12-07T09:02:54;95530.69;;;1.45;100.00
44297;BME280;51842;47.450;8.654;2022-12-07T09:05:35;95535.50;;;1.48;100.00
44297;BME280;51842;47.450;8.654;2022-12-07T09:08:02;95534.31;;;1.51;100.00
44297;BME280;51842;47.450;8.654;2022-12-07T09:10:39;95542.75;;;1.53;100.00
44297;BME280;51842;47.450;8.654;2022-12-07T09:13:04;95543.56;;;1.53;100.00
44297;BME280;51842;47.450;8.654;2022-12-07T09:15:36;95547.97;;;1.59;100.00
44297;BME280;51842;47.450;8.654;2022-12-07T09:18:02;95539.91;;;1.61;100.00
44297;BME280;51842;47.450;8.654;2022-12-07T09:20:37;95544.34;;;1.60;100.00
44297;BME280;51842;47.450;8.654;2022-12-07T09:23:05;95544.31;;;1.67;100.00
44297;BME280;51842;47.450;8.654;2022-12-07T09:25:35;95548.72;;;1.73;100.00
44297;BME280;51842;47.450;8.654;2022-12-07T09:28:01;95549.31;;;1.75;100.00
44297;BME280;51842;47.450;8.654;2022-12-07T09:30:28;95552.34;;;1.79;100.00
44297;BME280;51842;47.450;8.654;2022-12-07T09:32:55;95554.56;;;1.82;100.00
44297;BME280;51842;47.450;8.654;2022-12-07T09:35:21;95561.38;;;1.90;100.00
44297;BME280;51842;47.450;8.654;2022-12-07T09:37:47;95557.72;;;1.91;100.00
44297;BME280;51842;47.450;8.654;2022-12-07T09:40:15;95555.09;;;1.91;100.00
44297;BME280;51842;47.450;8.654;2022-12-07T09:42:49;95553.25;;;1.91;100.00
44297;BME280;51842;47.450;8.654;2022-12-07T09:45:41;95555.88;;;1.98;100.00
44297;BME280;51842;47.450;8.654;2022-12-07T09:48:19;95551.59;;;2.03;100.00
44297;BME280;51842;47.450;8.654;2022-12-07T09:50:48;95553.59;;;2.08;100.00
44297;BME280;51842;47.450;8.654;2022-12-07T09:55:54;95552.31;;;2.17;100.00
44297;BME280;51842;47.450;8.654;2022-12-07T09:58:25;95552.09;;;2.19;100.00
44297;BME280;51842;47.450;8.654;2022-12-07T10:03:37;95538.09;;;2.25;100.00
44297;BME280;51842;47.450;8.654;2022-12-07T10:06:05;95535.22;;;2.33;100.00
44297;BME280;51842;47.450;8.654;2022-12-07T10:08:32;95535.81;;;2.35;100.00
44297;BME280;51842;47.450;8.654;2022-12-07T10:11:00;95523.84;;;2.39;100.00
44297;BME280;51842;47.450;8.654;2022-12-07T10:13:48;95523.56;;;2.47;100.00
44297;BME280;51842;47.450;8.654;2022-12-07T10:18:51;95510.97;;;2.56;100.00
44297;BME280;51842;47.450;8.654;2022-12-07T10:21:23;95512.38;;;2.59;100.00
44297;BME280;51842;47.450;8.654;2022-12-07T10:26:51;95508.38;;;2.74;99.45
44297;BME280;51842;47.450;8.654;2022-12-07T10:32:23;95503.78;;;2.88;99.30
44297;BME280;51842;47.450;8.654;2022-12-07T10:34:49;95504.72;;;2.94;98.82
44297;BME280;51842;47.450;8.654;2022-12-07T10:37:21;95502.69;;;2.96;98.47
44297;BME280;51842;47.450;8.654;2022-12-07T10:39:57;95496.75;;;3.00;98.38
44297;BME280;51842;47.450;8.654;2022-12-07T10:42:29;95491.91;;;3.04;98.17
44297;BME280;51842;47.450;8.654;2022-12-07T10:51:44;95486.19;;;3.07;95.61
44297;BME280;51842;47.450;8.654;2022-12-07T10:54:32;95480.25;;;3.12;95.86
44297;BME280;51842;47.450;8.654;2022-12-07T11:00:32;95475.28;;;3.22;94.73
44297;BME280;51842;47.450;8.654;2022-12-07T11:09:00;95470.75;;;3.29;95.23
44297;BME280;51842;47.450;8.654;2022-12-07T11:11:44;95459.19;;;3.30;94.49
44297;BME280;51842;47.450;8.654;2022-12-07T11:14:40;95460.50;;;3.39;94.63
44297;BME280;51842;47.450;8.654;2022-12-07T11:17:17;95449.78;;;3.53;95.46
44297;BME280;51842;47.450;8.654;2022-12-07T11:23:16;95451.72;;;3.57;95.17
44297;BME280;51842;47.450;8.654;2022-12-07T11:37:35;95440.75;;;3.60;90.39
44297;BME280;51842;47.450;8.654;2022-12-07T11:40:31;95432.72;;;3.55;89.80
44297;BME280;51842;47.450;8.654;2022-12-07T11:43:34;95428.88;;;3.69;90.88
44297;BME280;51842;47.450;8.654;2022-12-07T11:46:19;95437.25;;;3.78;89.74
44297;BME280;51842;47.450;8.654;2022-12-07T11:52:04;95431.22;;;3.89;85.26
44297;BME280;51842;47.450;8.654;2022-12-07T11:54:41;95424.13;;;3.90;83.61
44297;BME280;51842;47.450;8.654;2022-12-07T11:57:37;95425.16;;;3.89;82.94
44297;BME280;51842;47.450;8.654;2022-12-07T12:00:16;95421.63;;;3.95;83.28
44297;BME280;51842;47.450;8.654;2022-12-07T12:03:11;95412.44;;;3.98;82.40
44297;BME280;51842;47.450;8.654;2022-12-07T12:05:41;95412.81;;;4.01;81.92
44297;BME280;51842;47.450;8.654;2022-12-07T12:08:20;95410.50;;;4.05;82.24
44297;BME280;51842;47.450;8.654;2022-12-07T12:17:03;95406.59;;;4.07;81.68
44297;BME280;51842;47.450;8.654;2022-12-07T12:22:20;95405.44;;;3.91;80.11
44297;BME280;51842;47.450;8.654;2022-12-07T12:24:52;95398.34;;;4.04;80.90
44297;BME280;51842;47.450;8.654;2022-12-07T12:27:32;95397.31;;;4.16;80.65
44297;BME280;51842;47.450;8.654;2022-12-07T12:30:06;95393.91;;;4.28;81.82
44297;BME280;51842;47.450;8.654;2022-12-07T12:32:40;95392.19;;;4.33;80.98
44297;BME280;51842;47.450;8.654;2022-12-07T12:35:38;95395.84;;;4.32;81.82
44297;BME280;51842;47.450;8.654;2022-12-07T12:38:33;95389.31;;;4.35;81.01
44297;BME280;51842;47.450;8.654;2022-12-07T12:41:01;95394.47;;;4.41;80.13
44297;BME280;51842;47.450;8.654;2022-12-07T12:43:46;95388.97;;;4.43;77.91
44297;BME280;51842;47.450;8.654;2022-12-07T12:51:51;95388.97;;;4.55;76.19
44297;BME280;51842;47.450;8.654;2022-12-07T12:54:32;95387.13;;;4.55;76.59
44297;BME280;51842;47.450;8.654;2022-12-07T12:57:13;95387.47;;;4.59;76.64
44297;BME280;51842;47.450;8.654;2022-12-07T13:02:56;95384.38;;;4.50;75.98
44297;BME280;51842;47.450;8.654;2022-12-07T13:05:33;95380.94;;;4.50;75.83
44297;BME280;51842;47.450;8.654;2022-12-07T13:08:20;95380.22;;;4.54;78.28
44297;BME280;51842;47.450;8.654;2022-12-07T13:10:48;95369.22;;;4.57;75.90
44297;BME280;51842;47.450;8.654;2022-12-07T13:13:32;95371.06;;;4.57;75.07
44297;BME280;51842;47.450;8.654;2022-12-07T13:23:56;95358.47;;;4.24;76.39
44297;BME280;51842;47.450;8.654;2022-12-07T13:29:15;95351.25;;;4.19;76.67
44297;BME280;51842;47.450;8.654;2022-12-07T13:31:50;95349.53;;;4.25;76.81
44297;BME280;51842;47.450;8.654;2022-12-07T13:34:32;95354.22;;;4.23;76.31
44297;BME280;51842;47.450;8.654;2022-12-07T13:37:15;95346.31;;;4.23;76.14
44297;BME280;51842;47.450;8.654;2022-12-07T13:40:25;95344.50;;;4.23;76.60
44297;BME280;51842;47.450;8.654;2022-12-07T13:42:59;95348.28;;;4.27;76.76
44297;BME280;51842;47.450;8.654;2022-12-07T13:45:32;95349.31;;;4.26;76.91
44297;BME280;51842;47.450;8.654;2022-12-07T13:48:29;95344.84;;;4.27;78.59
44297;BME280;51842;47.450;8.654;2022-12-07T13:50:58;95337.84;;;4.21;76.74
44297;BME280;51842;47.450;8.654;2022-12-07T13:53:25;95346.78;;;4.20;76.99
44297;BME280;51842;47.450;8.654;2022-12-07T13:56:00;95335.31;;;4.26;76.92
44297;BME280;51842;47.450;8.654;2022-12-07T13:58:33;95342.22;;;4.27;77.24
44297;BME280;51842;47.450;8.654;2022-12-07T14:01:00;95340.03;;;4.24;75.98
44297;BME280;51842;47.450;8.654;2022-12-07T14:03:33;95337.59;;;4.22;75.69
44297;BME280;51842;47.450;8.654;2022-12-07T14:06:26;95334.63;;;4.18;75.17
44297;BME280;51842;47.450;8.654;2022-12-07T14:11:55;95322.16;;;4.14;74.24
44297;BME280;51842;47.450;8.654;2022-12-07T14:14:30;95324.41;;;4.10;75.09
44297;BME280;51842;47.450;8.654;2022-12-07T14:17:16;95320.66;;;4.06;74.35
44297;BME280;51842;47.450;8.654;2022-12-07T14:19:56;95316.88;;;4.02;74.98
44297;BME280;51842;47.450;8.654;2022-12-07T14:22:35;95324.00;;;4.02;74.77
44297;BME280;51842;47.450;8.654;2022-12-07T14:28:09;95314.13;;;3.97;76.02
44297;BME280;51842;47.450;8.654;2022-12-07T14:30:52;95313.09;;;3.98;76.34
44297;BME280;51842;47.450;8.654;2022-12-07T14:33:18;95319.63;;;3.96;75.92
44297;BME280;51842;47.450;8.654;2022-12-07T14:35:44;95311.59;;;3.90;76.33
44297;BME280;51842;47.450;8.654;2022-12-07T14:38:10;95312.63;;;3.89;76.22
44297;BME280;51842;47.450;8.654;2022-12-07T14:40:36;95321.81;;;3.87;76.06
44297;BME280;51842;47.450;8.654;2022-12-07T14:43:10;95316.19;;;3.83;75.76
44297;BME280;51842;47.450;8.654;2022-12-07T14:45:37;95318.13;;;3.76;76.32
44297;BME280;51842;47.450;8.654;2022-12-07T14:48:03;95314.56;;;3.70;77.64
44297;BME280;51842;47.450;8.654;2022-12-07T14:50:39;95310.31;;;3.69;77.85
44297;BME280;51842;47.450;8.654;2022-12-07T14:53:27;95310.88;;;3.60;79.26
44297;BME280;51842;47.450;8.654;2022-12-07T14:55:57;95313.41;;;3.55;80.51
44297;BME280;51842;47.450;8.654;2022-12-07T14:58:23;95319.34;;;3.50;80.98
44297;BME280;51842;47.450;8.654;2022-12-07T15:00:48;95311.09;;;3.46;81.70
44297;BME280;51842;47.450;8.654;2022-12-07T15:03:14;95308.69;;;3.45;81.60
44297;BME280;51842;47.450;8.654;2022-12-07T15:05:41;95310.97;;;3.41;82.03
44297;BME280;51842;47.450;8.654;2022-12-07T15:08:12;95306.38;;;3.37;83.57
44297;BME280;51842;47.450;8.654;2022-12-07T15:10:37;95308.44;;;3.35;83.75
44297;BME280;51842;47.450;8.654;2022-12-07T15:13:05;95311.50;;;3.32;83.87
44297;BME280;51842;47.450;8.654;2022-12-07T15:16:01;95315.03;;;3.25;84.14
44297;BME280;51842;47.450;8.654;2022-12-07T15:18:27;95306.25;;;3.20;84.54
44297;BME280;51842;47.450;8.654;2022-12-07T15:20:53;95308.50;;;3.16;85.08
44297;BME280;51842;47.450;8.654;2022-12-07T15:23:19;95312.50;;;3.07;85.60
44297;BME280;51842;47.450;8.654;2022-12-07T15:25:48;95312.09;;;3.04;85.89
44297;BME280;51842;47.450;8.654;2022-12-07T15:28:14;95317.81;;;3.00;86.68
44297;BME280;51842;47.450;8.654;2022-12-07T15:30:42;95317.47;;;2.97;86.11
44297;BME280;51842;47.450;8.654;2022-12-07T15:33:09;95314.28;;;2.95;86.32
44297;BME280;51842;47.450;8.654;2022-12-07T15:35:40;95318.59;;;2.89;87.67